Ole-arvid Nergaard — LLAY — position and weather

sailwx.info

Track history (hours):
 
Tides and Currents Weather Stations Pressure Air Temp Water Temp Dewpoint Dewpoint Depression Visibility Wind Speed Wind Dir Waves Ship Positions

Ole-arvid Nergaard

Last reported at 2015-Jul-08 07:07 UTC. Time now 2015-Jul-29 16:03 UTC.
Position N 63°14' W 052°01'.
Warning: this ship's position is 21 days out of date.

Length 55 m; draft 7.2 m.

Type: Fishing. MMSI: 259656000.

Date/timePositionNaut miles runAvg speedWind from/ knotsBaromVisibWave heightAir tempDewpointWater temp
2015-Jul-08 07:07N 63°14' W 052°01'712.5
2015-Jul-08 06:33N 63°21' W 052°05'1312.8
2015-Jul-08 05:33N 63°33' W 052°14'1312.6
2015-Jul-08 04:33N 63°46' W 052°15'1212.4
2015-Jul-08 03:33N 63°58' W 052°16'1111.2
2015-Jul-08 02:33N 64°06' W 051°58'7 7.1
2015-Jul-08 01:34N 64°09' W 051°44'10 9.9
2015-Jul-08 00:33N 64°05' W 052°04'1313.1
2015-Jul-07 23:33N 64°02' W 052°33'1312.9
2015-Jul-07 22:33N 64°01' W 053°03'1212.4
2015-Jul-07 21:33N 63°60' W 053°31'1211.9
2015-Jul-07 20:33N 63°59' W 053°58'1212.3
2015-Jul-07 19:33N 63°57' W 054°26'1312.9
2015-Jul-07 18:34N 63°56' W 054°55'1212.4
2015-Jul-07 17:34N 63°55' W 055°23'1312.5
2015-Jul-07 16:33N 63°53' W 055°51'  
2015-Jun-30 21:13N 63°54' W 055°53'912.7
2015-Jun-30 20:31N 63°55' W 055°33'1212.9
2015-Jun-30 19:33N 63°56' W 055°05'1312.7
2015-Jun-30 18:33N 63°58' W 054°37'1212.5
2015-Jun-30 17:34N 63°59' W 054°08'1211.8
2015-Jun-30 16:33N 64°00' W 053°41'1211.8
2015-Jun-30 15:33N 64°01' W 053°15'1312.6
2015-Jun-30 14:34N 64°02' W 052°46'1312.9
2015-Jun-30 13:34N 64°03' W 052°16'1413.8
2015-Jun-30 12:34N 64°09' W 051°48'3 3.3
2015-Jun-30 11:33N 64°07' W 051°54'1111.0
2015-Jun-30 10:33N 64°03' W 052°18'1211.8
2015-Jun-30 09:33N 64°01' W 052°44'1212.0
2015-Jun-30 08:33N 64°01' W 053°12'1312.6
2015-Jun-30 07:33N 63°59' W 053°40'1313.2
2015-Jun-30 06:33N 63°58' W 054°10'1212.5
2015-Jun-30 05:33N 63°57' W 054°39'1212.5
2015-Jun-30 04:33N 63°56' W 055°07'1212.4
2015-Jun-30 03:33N 63°55' W 055°35'  
Track history (hours):
 
Tides and Currents Weather Stations Pressure Air Temp Water Temp Dewpoint Dewpoint Depression Visibility Wind Speed Wind Dir Waves Ship Positions

Ole-arvid Nergaard

Last reported at 2015-Jul-08 07:07 UTC. Time now 2015-Jul-29 16:03 UTC.
Position N 63°14' W 052°01'.
Warning: this ship's position is 21 days out of date.

Length 55 m; draft 7.2 m.

Type: Fishing. MMSI: 259656000.

Date/timePositionNaut miles runAvg speedWind from/ knotsBaromVisibWave heightAir tempDewpointWater temp
2015-Jul-08 07:07N 63°14' W 052°01'712.5
2015-Jul-08 06:33N 63°21' W 052°05'1312.8
2015-Jul-08 05:33N 63°33' W 052°14'1312.6
2015-Jul-08 04:33N 63°46' W 052°15'1212.4
2015-Jul-08 03:33N 63°58' W 052°16'1111.2
2015-Jul-08 02:33N 64°06' W 051°58'7 7.1
2015-Jul-08 01:34N 64°09' W 051°44'10 9.9
2015-Jul-08 00:33N 64°05' W 052°04'1313.1
2015-Jul-07 23:33N 64°02' W 052°33'1312.9
2015-Jul-07 22:33N 64°01' W 053°03'1212.4
2015-Jul-07 21:33N 63°60' W 053°31'1211.9
2015-Jul-07 20:33N 63°59' W 053°58'1212.3
2015-Jul-07 19:33N 63°57' W 054°26'1312.9
2015-Jul-07 18:34N 63°56' W 054°55'1212.4
2015-Jul-07 17:34N 63°55' W 055°23'1312.5
2015-Jul-07 16:33N 63°53' W 055°51'  
2015-Jun-30 21:13N 63°54' W 055°53'912.7
2015-Jun-30 20:31N 63°55' W 055°33'1212.9
2015-Jun-30 19:33N 63°56' W 055°05'1312.7
2015-Jun-30 18:33N 63°58' W 054°37'1212.5
2015-Jun-30 17:34N 63°59' W 054°08'1211.8
2015-Jun-30 16:33N 64°00' W 053°41'1211.8
2015-Jun-30 15:33N 64°01' W 053°15'1312.6
2015-Jun-30 14:34N 64°02' W 052°46'1312.9
2015-Jun-30 13:34N 64°03' W 052°16'1413.8
2015-Jun-30 12:34N 64°09' W 051°48'3 3.3
2015-Jun-30 11:33N 64°07' W 051°54'1111.0
2015-Jun-30 10:33N 64°03' W 052°18'1211.8
2015-Jun-30 09:33N 64°01' W 052°44'1212.0
2015-Jun-30 08:33N 64°01' W 053°12'1312.6
2015-Jun-30 07:33N 63°59' W 053°40'1313.2
2015-Jun-30 06:33N 63°58' W 054°10'1212.5
2015-Jun-30 05:33N 63°57' W 054°39'1212.5
2015-Jun-30 04:33N 63°56' W 055°07'1212.4
2015-Jun-30 03:33N 63°55' W 055°35'  

Dump ship's entire track history